Hovedside
METAR-TAF:

METAR-TAF

Lufthavner :

Alta, Norge

Alta lufthavn

breddegrad: 69-59N, lengdegrad: 023-22E, høyde over havet: 0 m

Gjeldene værobservasjon

Denne rapporten ble laget for 48 minutter siden, klokken 03:50 UTC
Vind 4 kt fra Sør-sørvest
Temperatur -7°C
Luftfuktighet 73%
Trykk 1012 hPa
Sikt 10 km eller mer
ingen skyer under 1500 m og ingen bygeskyer

METAR: ENAT 250350Z 20004KT CAVOK M07/M11 Q1012 RMK WIND 700FT 15008KT

Tid: 06:38 (04:38 UTC)

Varsel

Denne rapporten ble laget for 2 timer og 38 minutter siden, klokken 02:00 UTC
Varsel gyldig fra 25. klokken 04 UTC til 25. klokken 12 UTC
Vind 5 kt fra skiftende retning
Sikt 10 km eller mer
Få skyer i en høyde av 3000 ft

TAF: ENAT 250200Z 2504/2512 VRB05KT 9999 FEW030

Værobservasjoner og værvarsel for over 4000 flyplasser (METAR- og TAF-rapporter).

Tilgjengelige stasjoner er representert av de røde og gule prikkene på kartet.

Hold musepekeren over prikken for å se navnet på stasjonen.

Klikk så for å se værobservasjoner og -varsler.

For å forandre kartet kan du klikke på den grønne knappen med svart kryss for å zoome inn, på den grønne knappen med strek for å zoome ut, eller på de grønne pilene for å se tilstøtende kart.


METAR-TAF: